Time;durP1;ratioP1;P1;durP2;ratioP2;P2;SDS_P1;SDS_P2;PMS_P1;PMS_P2;Temp;Humidity;BMP_temperature;BMP_pressure;BME280_temperature;BME280_humidity;BME280_pressure;Samples;Min_cycle;Max_cycle;Signal;HPM_P1;HPM_P2
2023/01/31 00:01:36;;;;;;;11.38;1.50;;;;;;;;;;5198376;28;20457;-75
2023/01/31 00:04:12;;;;;;;9.00;1.25;;;;;;;;;;5198475;28;20137;-76
2023/01/31 00:06:49;;;;;;;11.00;1.85;;;;;;;;;;5198856;28;20030;-76
2023/01/31 00:09:20;;;;;;;8.68;1.00;;;;;;;;;;5198010;28;20124;-76
2023/01/31 00:11:52;;;;;;;12.10;2.45;;;;;;;;;;5198633;28;20034;-75
2023/01/31 00:14:24;;;;;;;9.40;1.35;;;;;;;;;;5197884;28;20488;-75
2023/01/31 00:16:55;;;;;;;9.18;0.88;;;;;;;;;;5198937;28;20034;-75
2023/01/31 00:19:27;;;;;;;11.15;1.00;;;;;;;;;;5198339;28;20045;-74
2023/01/31 00:21:58;;;;;;;7.22;1.42;;;;;;;;;;5198027;28;20022;-74
2023/01/31 00:24:29;;;;;;;15.75;1.77;;;;;;;;;;5198340;28;20087;-75
2023/01/31 00:27:00;;;;;;;7.30;1.10;;;;;;;;;;5198408;28;20023;-75
2023/01/31 00:29:32;;;;;;;12.13;0.98;;;;;;;;;;5197807;28;20025;-75
2023/01/31 00:32:03;;;;;;;13.30;1.50;;;;;;;;;;5198408;28;20465;-74
2023/01/31 00:34:34;;;;;;;10.25;2.03;;;;;;;;;;5198356;28;20469;-74
2023/01/31 00:37:05;;;;;;;8.65;1.92;;;;;;;;;;5197808;28;20050;-74
2023/01/31 00:39:36;;;;;;;10.40;1.23;;;;;;;;;;5200072;28;20038;-74
2023/01/31 00:42:08;;;;;;;8.30;1.15;;;;;;;;;;5198338;28;20492;-74
2023/01/31 00:44:39;;;;;;;11.52;1.77;;;;;;;;;;5197476;28;20026;-75
2023/01/31 00:47:10;;;;;;;13.57;1.92;;;;;;;;;;5198216;28;20018;-74
2023/01/31 00:49:41;;;;;;;11.45;1.73;;;;;;;;;;5197438;28;20022;-74
2023/01/31 00:52:12;;;;;;;9.63;1.00;;;;;;;;;;5198152;28;20059;-74
2023/01/31 00:54:43;;;;;;;13.90;2.03;;;;;;;;;;5197769;28;20105;-74
2023/01/31 00:57:15;;;;;;;11.65;1.60;;;;;;;;;;5197314;28;20027;-74
2023/01/31 00:59:46;;;;;;;14.25;1.90;;;;;;;;;;5197938;28;20105;-74
2023/01/31 01:02:17;;;;;;;12.18;2.10;;;;;;;;;;5197971;28;20489;-75
2023/01/31 01:04:48;;;;;;;10.43;1.35;;;;;;;;;;5197252;28;20033;-76
2023/01/31 01:07:21;;;;;;;12.13;1.77;;;;;;;;;;5197862;28;20024;-77
2023/01/31 01:09:53;;;;;;;7.75;1.33;;;;;;;;;;5197695;28;20042;-74
2023/01/31 01:12:24;;;;;;;15.35;1.63;;;;;;;;;;5198288;28;20041;-76
2023/01/31 01:14:55;;;;;;;11.95;3.03;;;;;;;;;;5198149;28;20022;-75
2023/01/31 01:17:27;;;;;;;10.27;1.58;;;;;;;;;;5197457;28;20114;-76
2023/01/31 01:20:02;;;;;;;13.73;2.10;;;;;;;;;;5197264;28;20027;-76
2023/01/31 01:22:33;;;;;;;13.05;1.77;;;;;;;;;;5197437;28;20061;-75
2023/01/31 01:25:05;;;;;;;14.23;2.75;;;;;;;;;;5196931;28;20026;-75
2023/01/31 01:27:36;;;;;;;12.15;2.10;;;;;;;;;;5197614;28;20037;-75
2023/01/31 01:30:08;;;;;;;12.90;2.55;;;;;;;;;;5197578;28;20068;-75
2023/01/31 01:32:39;;;;;;;12.40;2.53;;;;;;;;;;5196660;28;20054;-76
2023/01/31 01:35:10;;;;;;;10.68;2.38;;;;;;;;;;5197262;28;20457;-75
2023/01/31 01:37:41;;;;;;;15.07;2.63;;;;;;;;;;5197411;28;20023;-75
2023/01/31 01:40:12;;;;;;;10.68;2.00;;;;;;;;;;5196462;28;20052;-75
2023/01/31 01:42:44;;;;;;;17.52;3.53;;;;;;;;;;5197257;28;20496;-75
2023/01/31 01:45:15;;;;;;;14.23;3.00;;;;;;;;;;5197113;28;20064;-75
2023/01/31 01:47:49;;;;;;;20.38;3.75;;;;;;;;;;5196216;28;20022;-75
2023/01/31 01:50:32;;;;;;;11.15;2.40;;;;;;;;;;5197013;28;20098;-75
2023/01/31 01:53:07;;;;;;;14.55;3.50;;;;;;;;;;5196185;28;20025;-75
2023/01/31 01:55:41;;;;;;;16.40;3.03;;;;;;;;;;5196938;28;20018;-75
2023/01/31 01:58:22;;;;;;;16.15;2.72;;;;;;;;;;5196963;28;20029;-75
2023/01/31 02:00:53;;;;;;;17.02;4.18;;;;;;;;;;5196306;28;20167;-75
2023/01/31 02:03:24;;;;;;;15.07;2.90;;;;;;;;;;5196453;28;20129;-75
2023/01/31 02:05:58;;;;;;;13.07;3.03;;;;;;;;;;5196815;28;20176;-75
2023/01/31 02:08:31;;;;;;;15.85;3.05;;;;;;;;;;5195230;28;20033;-75
2023/01/31 02:11:02;;;;;;;13.43;3.00;;;;;;;;;;5197296;28;20466;-75
2023/01/31 02:13:33;;;;;;;13.90;2.92;;;;;;;;;;5196896;28;20033;-75
2023/01/31 02:16:04;;;;;;;17.70;4.15;;;;;;;;;;5195993;28;20112;-75
2023/01/31 02:18:36;;;;;;;15.75;3.20;;;;;;;;;;5196547;28;20018;-75
2023/01/31 02:21:33;;;;;;;13.38;4.45;;;;;;;;;;5195857;28;20014;-75
2023/01/31 02:24:21;;;;;;;14.48;3.45;;;;;;;;;;5196625;28;20037;-75
2023/01/31 02:26:58;;;;;;;16.08;3.47;;;;;;;;;;5196596;28;20022;-75
2023/01/31 02:29:52;;;;;;;11.82;3.30;;;;;;;;;;5195639;28;20462;-75
2023/01/31 02:32:29;;;;;;;20.33;3.60;;;;;;;;;;5196455;28;20358;-76
2023/01/31 02:35:00;;;;;;;13.82;3.72;;;;;;;;;;5195736;28;20035;-75
2023/01/31 02:37:50;;;;;;;16.92;4.66;;;;;;;;;;5196351;28;20211;-75
2023/01/31 02:40:36;;;;;;;13.15;3.80;;;;;;;;;;5196568;28;20014;-75
2023/01/31 02:43:12;;;;;;;15.43;4.57;;;;;;;;;;5195625;28;20084;-75
2023/01/31 02:45:46;;;;;;;18.65;5.47;;;;;;;;;;5196304;28;20050;-75
2023/01/31 02:48:36;;;;;;;10.30;3.95;;;;;;;;;;5196637;28;20103;-75
2023/01/31 02:51:12;;;;;;;19.63;4.18;;;;;;;;;;5195480;28;20026;-75
2023/01/31 02:53:47;;;;;;;20.08;4.18;;;;;;;;;;5196290;28;20034;-75
2023/01/31 02:56:22;;;;;;;21.92;4.53;;;;;;;;;;5195242;28;20014;-75
2023/01/31 02:58:53;;;;;;;16.85;4.50;;;;;;;;;;5196278;28;20366;-75
2023/01/31 03:01:34;;;;;;;18.50;5.05;;;;;;;;;;5195711;28;20034;-75
2023/01/31 03:04:06;;;;;;;16.55;6.03;;;;;;;;;;5194667;28;20058;-75
2023/01/31 03:06:53;;;;;;;18.23;4.57;;;;;;;;;;5195967;28;20018;-75
2023/01/31 03:09:35;;;;;;;20.08;6.18;;;;;;;;;;5195834;28;20035;-75
2023/01/31 03:12:18;;;;;;;21.50;5.90;;;;;;;;;;5195273;28;20033;-75
2023/01/31 03:15:09;;;;;;;18.60;5.25;;;;;;;;;;5195927;28;20022;-75
2023/01/31 03:17:50;;;;;;;18.55;5.15;;;;;;;;;;5195797;28;20129;-75
2023/01/31 03:20:42;;;;;;;22.10;5.93;;;;;;;;;;5199597;28;20047;-75
2023/01/31 03:23:16;;;;;;;14.75;5.20;;;;;;;;;;5199262;28;20038;-75
2023/01/31 03:25:48;;;;;;;23.65;6.47;;;;;;;;;;5198385;28;20052;-75
2023/01/31 03:28:21;;;;;;;16.67;5.90;;;;;;;;;;5199380;28;20434;-75
2023/01/31 03:30:58;;;;;;;19.58;5.93;;;;;;;;;;5199375;28;20014;-75
2023/01/31 03:33:32;;;;;;;23.10;6.05;;;;;;;;;;5198319;28;20377;-75
2023/01/31 03:36:13;;;;;;;20.17;6.30;;;;;;;;;;5199124;28;20105;-75
2023/01/31 03:39:13;;;;;;;20.85;6.50;;;;;;;;;;5198591;28;20026;-75
2023/01/31 03:41:47;;;;;;;23.65;7.90;;;;;;;;;;5203262;28;20113;-75
2023/01/31 03:44:21;;;;;;;18.63;6.72;;;;;;;;;;5198863;28;20138;-75
2023/01/31 03:46:56;;;;;;;18.27;6.43;;;;;;;;;;5198480;28;20022;-75
2023/01/31 03:49:28;;;;;;;18.88;6.90;;;;;;;;;;5198595;28;20022;-75
2023/01/31 03:52:03;;;;;;;16.88;7.07;;;;;;;;;;5199046;28;20014;-75
2023/01/31 03:54:46;;;;;;;22.55;7.80;;;;;;;;;;5198021;28;20477;-75
2023/01/31 03:57:27;;;;;;;22.02;6.57;;;;;;;;;;5199118;28;20097;-75
2023/01/31 03:59:59;;;;;;;27.02;8.13;;;;;;;;;;5198630;28;20404;-75
2023/01/31 04:02:33;;;;;;;23.58;7.53;;;;;;;;;;5198602;28;20398;-75
2023/01/31 04:05:06;;;;;;;26.05;7.82;;;;;;;;;;5198740;28;20030;-75
2023/01/31 04:07:38;;;;;;;21.77;7.88;;;;;;;;;;5198198;28;20528;-75
2023/01/31 04:10:15;;;;;;;22.95;8.55;;;;;;;;;;5198719;28;20022;-75
2023/01/31 04:12:46;;;;;;;16.50;6.15;;;;;;;;;;5198631;28;20014;-75
2023/01/31 04:15:17;;;;;;;21.33;6.63;;;;;;;;;;5197729;28;20034;-75
2023/01/31 04:17:49;;;;;;;25.13;8.07;;;;;;;;;;5198463;28;20482;-75
2023/01/31 04:20:20;;;;;;;21.58;8.23;;;;;;;;;;5198649;28;20052;-75
2023/01/31 04:22:51;;;;;;;22.00;7.70;;;;;;;;;;5197501;28;20179;-74
2023/01/31 04:25:22;;;;;;;22.05;7.22;;;;;;;;;;5198523;28;20370;-75
2023/01/31 04:27:53;;;;;;;19.75;7.05;;;;;;;;;;5197644;28;20018;-75
2023/01/31 04:30:25;;;;;;;23.42;7.78;;;;;;;;;;5197401;28;20028;-75
2023/01/31 04:32:56;;;;;;;16.20;6.25;;;;;;;;;;5198815;28;20500;-75
2023/01/31 04:35:27;;;;;;;19.17;6.75;;;;;;;;;;5197333;28;20019;-75
2023/01/31 04:37:58;;;;;;;23.75;7.43;;;;;;;;;;5198623;28;20514;-75
2023/01/31 04:40:29;;;;;;;19.85;7.38;;;;;;;;;;5197908;28;20022;-75
2023/01/31 04:43:00;;;;;;;27.67;7.05;;;;;;;;;;5197534;28;20046;-75
2023/01/31 04:45:32;;;;;;;20.52;8.00;;;;;;;;;;5198313;28;20083;-75
2023/01/31 04:48:03;;;;;;;21.48;7.45;;;;;;;;;;5198314;28;20091;-75
2023/01/31 04:50:34;;;;;;;19.45;7.90;;;;;;;;;;5197313;28;20030;-75
2023/01/31 04:53:07;;;;;;;19.17;6.25;;;;;;;;;;5198155;28;20032;-75
2023/01/31 04:55:38;;;;;;;19.52;6.97;;;;;;;;;;5197843;28;20014;-75
2023/01/31 04:58:09;;;;;;;18.90;7.13;;;;;;;;;;5197661;28;20029;-75
2023/01/31 05:00:41;;;;;;;18.33;7.18;;;;;;;;;;5197895;28;20032;-75
2023/01/31 05:03:12;;;;;;;23.60;7.25;;;;;;;;;;5196886;28;20054;-74
2023/01/31 05:05:43;;;;;;;20.80;7.55;;;;;;;;;;5197977;28;20610;-75
2023/01/31 05:08:14;;;;;;;21.65;7.30;;;;;;;;;;5198089;28;20041;-75
2023/01/31 05:10:45;;;;;;;21.00;7.65;;;;;;;;;;5197113;28;20011;-75
2023/01/31 05:13:17;;;;;;;18.13;7.20;;;;;;;;;;5197837;28;20060;-75
2023/01/31 05:15:48;;;;;;;22.52;7.82;;;;;;;;;;5197589;28;20022;-75
2023/01/31 05:18:19;;;;;;;19.50;6.90;;;;;;;;;;5197140;28;20535;-74
2023/01/31 05:20:50;;;;;;;21.05;6.95;;;;;;;;;;5197647;28;20014;-75
2023/01/31 05:23:22;;;;;;;19.17;6.05;;;;;;;;;;5197889;28;20060;-75
2023/01/31 05:25:53;;;;;;;20.67;6.82;;;;;;;;;;5196765;28;20046;-75
2023/01/31 05:28:24;;;;;;;22.65;6.93;;;;;;;;;;5197280;28;20026;-74
2023/01/31 05:31:03;;;;;;;21.88;7.55;;;;;;;;;;5197172;28;20046;-74
2023/01/31 05:33:34;;;;;;;18.67;6.38;;;;;;;;;;5197443;28;20041;-74
2023/01/31 05:36:06;;;;;;;17.90;6.45;;;;;;;;;;5197312;28;20015;-74
2023/01/31 05:38:37;;;;;;;15.00;6.45;;;;;;;;;;5196468;28;20450;-74
2023/01/31 05:41:08;;;;;;;21.77;7.68;;;;;;;;;;5196308;28;20023;-74
2023/01/31 05:43:39;;;;;;;19.95;6.38;;;;;;;;;;5196773;28;20030;-74
2023/01/31 05:46:10;;;;;;;24.35;8.10;;;;;;;;;;5196452;28;20377;-75
2023/01/31 05:48:41;;;;;;;19.52;6.80;;;;;;;;;;5197133;28;20026;-74
2023/01/31 05:51:13;;;;;;;13.93;5.72;;;;;;;;;;5197025;28;20022;-74
2023/01/31 05:53:44;;;;;;;23.52;7.03;;;;;;;;;;5196205;28;20034;-74
2023/01/31 05:56:15;;;;;;;21.08;7.00;;;;;;;;;;5196930;28;20489;-74
2023/01/31 05:58:49;;;;;;;16.75;5.88;;;;;;;;;;5197129;28;20033;-76
2023/01/31 06:01:22;;;;;;;18.33;7.35;;;;;;;;;;5196336;28;20381;-76
2023/01/31 06:03:53;;;;;;;18.27;6.72;;;;;;;;;;5196528;28;20052;-76
2023/01/31 06:06:24;;;;;;;18.25;6.97;;;;;;;;;;5195995;28;20400;-76
2023/01/31 06:08:56;;;;;;;16.90;6.20;;;;;;;;;;5197270;28;20038;-73
2023/01/31 06:11:27;;;;;;;21.02;6.13;;;;;;;;;;5196560;28;20011;-76
2023/01/31 06:13:58;;;;;;;13.63;5.68;;;;;;;;;;5196359;28;20023;-76
2023/01/31 06:16:29;;;;;;;15.73;6.32;;;;;;;;;;5196434;28;20021;-73
2023/01/31 06:19:01;;;;;;;15.35;6.45;;;;;;;;;;5196778;28;20508;-75
2023/01/31 06:21:32;;;;;;;16.48;5.85;;;;;;;;;;5195945;28;20120;-76
2023/01/31 06:24:03;;;;;;;19.42;6.45;;;;;;;;;;5196617;28;20053;-75
2023/01/31 06:26:34;;;;;;;16.77;6.25;;;;;;;;;;5196497;28;20030;-75
2023/01/31 06:29:07;;;;;;;20.23;5.97;;;;;;;;;;5195695;28;20022;-76
2023/01/31 06:31:38;;;;;;;20.13;5.40;;;;;;;;;;5196537;28;20011;-75
2023/01/31 06:34:10;;;;;;;15.15;5.00;;;;;;;;;;5195760;28;20067;-76
2023/01/31 06:36:41;;;;;;;12.52;4.95;;;;;;;;;;5196405;28;20113;-76
2023/01/31 06:39:13;;;;;;;15.85;4.60;;;;;;;;;;5196326;28;20075;-76
2023/01/31 06:41:44;;;;;;;14.10;4.90;;;;;;;;;;5195765;28;20022;-76
2023/01/31 06:44:15;;;;;;;21.83;5.65;;;;;;;;;;5196251;28;20038;-76
2023/01/31 06:46:46;;;;;;;17.65;5.55;;;;;;;;;;5196262;28;20060;-76
2023/01/31 06:49:18;;;;;;;16.83;5.28;;;;;;;;;;5195510;28;20023;-76
2023/01/31 06:51:49;;;;;;;13.43;4.70;;;;;;;;;;5196052;28;20100;-76
2023/01/31 06:54:20;;;;;;;18.60;5.18;;;;;;;;;;5195966;28;20136;-76
2023/01/31 06:56:51;;;;;;;17.88;4.97;;;;;;;;;;5195235;28;20025;-76
2023/01/31 06:59:22;;;;;;;15.73;4.38;;;;;;;;;;5196196;28;20540;-76
2023/01/31 07:01:54;;;;;;;16.40;4.95;;;;;;;;;;5195756;28;20031;-77
2023/01/31 07:04:25;;;;;;;14.75;4.38;;;;;;;;;;5195188;28;20026;-73
2023/01/31 07:06:56;;;;;;;11.50;4.47;;;;;;;;;;5196424;28;20029;-74
2023/01/31 07:09:27;;;;;;;17.67;4.22;;;;;;;;;;5194567;28;20019;-74
2023/01/31 07:11:58;;;;;;;13.88;4.65;;;;;;;;;;5195969;28;20075;-74
2023/01/31 07:14:30;;;;;;;16.35;4.15;;;;;;;;;;5195298;28;20107;-74
2023/01/31 07:17:01;;;;;;;16.65;5.40;;;;;;;;;;5194754;28;20022;-74
2023/01/31 07:19:32;;;;;;;19.88;5.55;;;;;;;;;;5195626;28;20030;-75
2023/01/31 07:22:03;;;;;;;15.80;4.32;;;;;;;;;;5195673;28;20026;-75
2023/01/31 07:24:34;;;;;;;16.33;4.55;;;;;;;;;;5194652;28;20188;-75
2023/01/31 07:27:06;;;;;;;15.02;4.13;;;;;;;;;;5195230;28;20022;-74
2023/01/31 07:29:37;;;;;;;12.48;3.65;;;;;;;;;;5195552;28;20496;-75
2023/01/31 07:32:08;;;;;;;14.43;4.57;;;;;;;;;;5195041;28;20019;-75
2023/01/31 07:34:39;;;;;;;16.42;4.43;;;;;;;;;;5195477;28;20080;-75
2023/01/31 07:37:11;;;;;;;14.65;3.80;;;;;;;;;;5195585;28;20030;-75
2023/01/31 07:39:42;;;;;;;14.18;4.78;;;;;;;;;;5194867;28;20041;-74
2023/01/31 07:42:13;;;;;;;14.48;4.25;;;;;;;;;;5195413;28;20033;-75
2023/01/31 07:44:44;;;;;;;14.48;3.88;;;;;;;;;;5194693;28;20557;-75
2023/01/31 07:47:15;;;;;;;12.73;3.17;;;;;;;;;;5195361;28;20036;-74
2023/01/31 07:49:49;;;;;;;12.55;3.17;;;;;;;;;;5195467;28;20029;-75
2023/01/31 07:52:20;;;;;;;15.32;4.15;;;;;;;;;;5194671;28;20018;-75
2023/01/31 07:54:51;;;;;;;10.63;3.90;;;;;;;;;;5195633;28;20033;-74
2023/01/31 07:57:22;;;;;;;15.05;3.88;;;;;;;;;;5195392;28;20083;-75
2023/01/31 07:59:54;;;;;;;12.48;4.45;;;;;;;;;;5194504;28;20050;-74
2023/01/31 08:05:14;;;;;;;14.10;4.25;;;;;;;;;;5199493;28;20431;-74
2023/01/31 08:08:09;;;;;;;11.48;3.22;;;;;;;;;;5199537;28;20027;-74
2023/01/31 08:10:37;;;;;;;13.55;4.05;;;;;;;;;;5198670;28;20468;-74
2023/01/31 08:13:10;;;;;;;13.45;3.50;;;;;;;;;;5198149;28;20098;-74
2023/01/31 08:15:41;;;;;;;14.60;4.38;;;;;;;;;;5198623;28;20042;-74
2023/01/31 08:18:12;;;;;;;11.25;3.45;;;;;;;;;;5198703;28;20057;-75
2023/01/31 08:20:44;;;;;;;13.88;3.83;;;;;;;;;;5198010;28;20031;-75
2023/01/31 08:23:15;;;;;;;15.88;3.75;;;;;;;;;;5198398;28;20034;-74
2023/01/31 08:25:46;;;;;;;13.77;3.30;;;;;;;;;;5198309;28;20418;-75
2023/01/31 08:28:17;;;;;;;14.23;3.88;;;;;;;;;;5197682;28;20109;-75
2023/01/31 08:30:48;;;;;;;12.68;3.65;;;;;;;;;;5198459;28;20033;-73
2023/01/31 08:33:20;;;;;;;14.07;3.20;;;;;;;;;;5198241;28;20048;-74
2023/01/31 08:35:51;;;;;;;10.93;2.42;;;;;;;;;;5197288;28;20135;-74
2023/01/31 08:38:22;;;;;;;13.55;3.03;;;;;;;;;;5198234;28;20372;-75
2023/01/31 08:40:57;;;;;;;10.50;3.50;;;;;;;;;;5197409;28;20030;-74
2023/01/31 08:43:28;;;;;;;10.27;2.80;;;;;;;;;;5197659;28;20038;-74
2023/01/31 08:45:59;;;;;;;12.07;2.67;;;;;;;;;;5198095;28;20022;-74
2023/01/31 08:48:32;;;;;;;12.70;3.00;;;;;;;;;;5197217;28;20454;-75
2023/01/31 08:51:04;;;;;;;12.90;3.25;;;;;;;;;;5198137;28;20015;-74
2023/01/31 08:53:39;;;;;;;15.23;3.13;;;;;;;;;;5197562;28;20473;-72
2023/01/31 08:56:11;;;;;;;16.90;3.30;;;;;;;;;;5197253;28;20506;-74
2023/01/31 08:58:43;;;;;;;13.30;3.50;;;;;;;;;;5197847;28;20037;-74
2023/01/31 09:01:15;;;;;;;10.73;3.05;;;;;;;;;;5197782;28;20018;-74
2023/01/31 09:03:47;;;;;;;15.88;3.45;;;;;;;;;;5196785;28;20432;-74
2023/01/31 09:06:20;;;;;;;10.57;2.95;;;;;;;;;;5197960;28;20026;-74
2023/01/31 09:08:51;;;;;;;13.60;3.60;;;;;;;;;;5197156;28;20022;-73
2023/01/31 09:11:22;;;;;;;10.48;2.53;;;;;;;;;;5197384;28;20504;-73
2023/01/31 09:13:53;;;;;;;15.10;2.80;;;;;;;;;;5197981;28;20015;-72
2023/01/31 09:16:24;;;;;;;16.52;3.33;;;;;;;;;;5196314;28;20026;-73
2023/01/31 09:18:56;;;;;;;17.92;2.83;;;;;;;;;;5197876;28;20035;-73
2023/01/31 09:21:27;;;;;;;11.30;2.15;;;;;;;;;;5196847;28;20038;-74
2023/01/31 09:24:01;;;;;;;15.38;3.08;;;;;;;;;;5195908;28;20042;-73
2023/01/31 09:26:32;;;;;;;15.40;3.00;;;;;;;;;;5196954;28;20121;-72
2023/01/31 09:29:03;;;;;;;10.73;2.50;;;;;;;;;;5197518;28;20109;-73
2023/01/31 09:31:34;;;;;;;10.82;2.47;;;;;;;;;;5196496;28;20083;-73
2023/01/31 09:34:05;;;;;;;12.90;2.63;;;;;;;;;;5196927;28;20094;-74
2023/01/31 09:36:37;;;;;;;9.77;2.47;;;;;;;;;;5179973;28;20050;-73
2023/01/31 09:39:09;;;;;;;15.18;2.90;;;;;;;;;;5175919;28;20034;-74
2023/01/31 09:41:43;;;;;;;11.93;2.22;;;;;;;;;;5176750;28;20531;-77
2023/01/31 09:44:18;;;;;;;11.90;2.45;;;;;;;;;;5175683;28;20061;-74
2023/01/31 09:47:03;;;;;;;11.40;2.67;;;;;;;;;;5175651;28;20385;-75
2023/01/31 09:49:41;;;;;;;12.00;2.17;;;;;;;;;;5175578;28;20023;-74
2023/01/31 09:52:13;;;;;;;13.98;2.45;;;;;;;;;;5176053;28;20051;-75
2023/01/31 09:54:44;;;;;;;10.15;2.78;;;;;;;;;;5176440;28;20054;-73
2023/01/31 09:57:34;;;;;;;12.45;2.92;;;;;;;;;;5176682;28;20056;-73
2023/01/31 10:00:11;;;;;;;8.00;1.83;;;;;;;;;;5175806;28;20153;-76
2023/01/31 10:03:01;;;;;;;11.75;2.42;;;;;;;;;;5176235;28;20054;-76
2023/01/31 10:05:38;;;;;;;14.50;3.08;;;;;;;;;;5175416;28;20367;-77
2023/01/31 10:08:15;;;;;;;10.18;2.03;;;;;;;;;;5176690;28;20022;-76
2023/01/31 10:11:12;;;;;;;9.60;2.42;;;;;;;;;;5176840;28;20480;-77
2023/01/31 10:13:48;;;;;;;16.00;2.15;;;;;;;;;;5178123;28;20042;-75
2023/01/31 10:16:29;;;;;;;9.48;2.13;;;;;;;;;;5176644;28;20385;-76
2023/01/31 10:19:06;;;;;;;7.75;2.92;;;;;;;;;;5176695;28;20037;-76
2023/01/31 10:21:39;;;;;;;10.57;2.80;;;;;;;;;;5175367;28;20015;-75
2023/01/31 10:24:14;;;;;;;14.93;4.18;;;;;;;;;;5176063;28;20498;-74
2023/01/31 10:26:45;;;;;;;12.25;3.10;;;;;;;;;;5175382;28;20027;-74
2023/01/31 10:29:37;;;;;;;9.15;2.80;;;;;;;;;;5175670;28;20493;-75
2023/01/31 10:32:18;;;;;;;17.77;4.28;;;;;;;;;;5175936;28;20504;-75
2023/01/31 10:34:58;;;;;;;10.68;3.60;;;;;;;;;;5175223;28;20148;-75
2023/01/31 10:37:34;;;;;;;15.02;5.95;;;;;;;;;;5175833;28;20102;-75
2023/01/31 10:40:11;;;;;;;14.57;5.55;;;;;;;;;;5175699;28;20022;-75
2023/01/31 10:42:47;;;;;;;16.70;6.00;;;;;;;;;;5175074;28;20509;-74
2023/01/31 10:45:21;;;;;;;13.25;5.80;;;;;;;;;;5175910;28;20466;-75
2023/01/31 10:47:59;;;;;;;18.95;7.68;;;;;;;;;;5175446;28;20030;-74
2023/01/31 10:50:33;;;;;;;17.53;7.90;;;;;;;;;;5175830;28;20027;-75
2023/01/31 10:53:23;;;;;;;16.60;7.47;;;;;;;;;;5175753;28;20019;-74
2023/01/31 10:56:01;;;;;;;17.42;7.55;;;;;;;;;;5175351;28;20034;-74
2023/01/31 10:58:33;;;;;;;19.90;8.00;;;;;;;;;;5175669;28;20015;-75
2023/01/31 11:01:10;;;;;;;16.70;7.68;;;;;;;;;;5174766;28;20114;-74
2023/01/31 11:03:47;;;;;;;16.83;7.80;;;;;;;;;;5174774;28;20075;-74
2023/01/31 11:06:19;;;;;;;16.08;7.18;;;;;;;;;;5175828;28;20076;-76
2023/01/31 11:08:55;;;;;;;14.77;6.97;;;;;;;;;;5174991;28;20027;-74
2023/01/31 11:11:27;;;;;;;14.55;7.22;;;;;;;;;;5175244;28;20015;-74
2023/01/31 11:13:58;;;;;;;14.77;7.18;;;;;;;;;;5175949;28;20532;-74
2023/01/31 11:16:34;;;;;;;15.75;7.22;;;;;;;;;;5174429;28;20031;-74
2023/01/31 11:19:17;;;;;;;12.70;6.22;;;;;;;;;;5175832;28;20466;-75
2023/01/31 11:21:49;;;;;;;14.63;6.55;;;;;;;;;;5175731;28;20072;-76
2023/01/31 11:24:25;;;;;;;16.73;6.43;;;;;;;;;;5174476;28;20039;-76
2023/01/31 11:26:58;;;;;;;16.73;6.32;;;;;;;;;;5175788;28;20030;-76
2023/01/31 11:29:32;;;;;;;17.90;7.05;;;;;;;;;;5175083;28;20026;-75
2023/01/31 11:32:05;;;;;;;12.18;5.05;;;;;;;;;;5174851;28;20072;-75
2023/01/31 11:34:36;;;;;;;15.20;6.07;;;;;;;;;;5174443;28;20023;-75
2023/01/31 11:37:16;;;;;;;11.65;5.32;;;;;;;;;;5172436;28;20373;-75
2023/01/31 11:40:01;;;;;;;14.70;5.57;;;;;;;;;;5177045;28;20113;-74
2023/01/31 11:42:32;;;;;;;8.70;4.45;;;;;;;;;;5178796;28;20030;-73
2023/01/31 11:45:15;;;;;;;15.18;4.78;;;;;;;;;;5178129;28;20038;-74
2023/01/31 11:47:48;;;;;;;10.73;4.80;;;;;;;;;;5178851;28;20050;-73
2023/01/31 11:50:31;;;;;;;12.13;3.70;;;;;;;;;;5178717;28;20069;-73
2023/01/31 11:53:03;;;;;;;13.35;3.63;;;;;;;;;;5177963;28;20023;-74
2023/01/31 11:55:36;;;;;;;11.77;4.28;;;;;;;;;;5178676;28;20026;-73
2023/01/31 11:58:16;;;;;;;13.40;4.30;;;;;;;;;;5177828;28;20394;-73
2023/01/31 12:00:55;;;;;;;13.85;4.43;;;;;;;;;;5178487;28;20039;-73
2023/01/31 12:03:27;;;;;;;11.82;4.28;;;;;;;;;;5177816;28;20058;-72
2023/01/31 12:06:00;;;;;;;10.68;3.78;;;;;;;;;;5177993;28;20098;-72
2023/01/31 12:08:35;;;;;;;11.77;3.78;;;;;;;;;;5178262;28;20037;-72
2023/01/31 12:11:18;;;;;;;11.68;4.20;;;;;;;;;;5178556;28;20117;-71
2023/01/31 12:13:53;;;;;;;12.18;3.70;;;;;;;;;;5177490;28;20115;-72
2023/01/31 12:16:25;;;;;;;16.25;3.75;;;;;;;;;;5177913;28;20030;-72
2023/01/31 12:18:56;;;;;;;13.20;4.97;;;;;;;;;;5177764;28;20389;-72
2023/01/31 12:21:36;;;;;;;12.25;4.68;;;;;;;;;;5178141;28;20027;-73
2023/01/31 12:24:30;;;;;;;18.38;5.22;;;;;;;;;;5178255;28;20355;-73
2023/01/31 12:27:19;;;;;;;11.68;3.92;;;;;;;;;;5184851;28;20474;-73
2023/01/31 12:29:50;;;;;;;8.48;4.45;;;;;;;;;;5178226;28;20483;-73
2023/01/31 12:32:27;;;;;;;11.07;4.38;;;;;;;;;;5178369;28;20098;-73
2023/01/31 12:35:07;;;;;;;13.13;4.45;;;;;;;;;;5179726;28;20027;-73
2023/01/31 12:37:47;;;;;;;12.85;5.05;;;;;;;;;;5197299;28;20025;-73
2023/01/31 12:40:54;;;;;;;13.20;3.83;;;;;;;;;;5176407;28;20038;-74
2023/01/31 12:43:28;;;;;;;15.63;4.65;;;;;;;;;;5260055;28;20098;-73
2023/01/31 12:46:08;;;;;;;12.90;4.63;;;;;;;;;;5189189;28;20038;-74
2023/01/31 12:48:58;;;;;;;12.38;4.22;;;;;;;;;;5177911;28;20439;-74
2023/01/31 12:51:38;;;;;;;12.25;4.45;;;;;;;;;;5189048;28;20109;-74
2023/01/31 12:54:28;;;;;;;10.10;3.65;;;;;;;;;;5195222;28;20025;-73
2023/01/31 12:57:20;;;;;;;11.85;4.53;;;;;;;;;;5196616;28;20382;-73
2023/01/31 13:00:09;;;;;;;9.10;3.95;;;;;;;;;;5196549;28;20033;-74
2023/01/31 13:02:56;;;;;;;8.50;4.13;;;;;;;;;;5194993;28;20171;-73
2023/01/31 13:05:50;;;;;;;11.00;3.90;;;;;;;;;;5194801;28;20409;-71
2023/01/31 13:08:29;;;;;;;11.27;3.75;;;;;;;;;;5199978;28;20115;-70
2023/01/31 13:11:00;;;;;;;11.68;3.05;;;;;;;;;;5195688;28;20469;-71
2023/01/31 13:13:42;;;;;;;9.13;2.55;;;;;;;;;;5195810;28;20025;-71
2023/01/31 13:16:28;;;;;;;8.48;2.92;;;;;;;;;;5194463;28;20375;-73
2023/01/31 13:19:02;;;;;;;8.40;2.55;;;;;;;;;;5196452;28;20029;-72
2023/01/31 13:21:35;;;;;;;9.75;2.67;;;;;;;;;;5197255;28;20502;-72
2023/01/31 13:24:12;;;;;;;5.68;1.70;;;;;;;;;;5196567;28;20045;-72
2023/01/31 13:26:49;;;;;;;9.25;1.55;;;;;;;;;;5197254;28;20421;-72
2023/01/31 13:29:35;;;;;;;8.32;1.95;;;;;;;;;;5196592;28;20501;-72
2023/01/31 13:32:14;;;;;;;8.82;1.60;;;;;;;;;;5197287;28;20023;-73
2023/01/31 13:34:54;;;;;;;5.47;1.10;;;;;;;;;;5197053;28;20042;-71
2023/01/31 13:37:29;;;;;;;4.35;1.08;;;;;;;;;;5194831;28;20105;-72
2023/01/31 13:40:13;;;;;;;8.82;1.90;;;;;;;;;;5196924;28;20105;-72
2023/01/31 13:42:44;;;;;;;6.30;1.20;;;;;;;;;;5197257;28;20034;-72
2023/01/31 13:45:21;;;;;;;8.15;1.35;;;;;;;;;;5196514;28;20039;-72
2023/01/31 13:48:04;;;;;;;7.03;1.50;;;;;;;;;;5197177;28;20093;-72
2023/01/31 13:50:41;;;;;;;4.47;1.75;;;;;;;;;;5195035;28;20026;-72
2023/01/31 13:53:15;;;;;;;7.68;1.17;;;;;;;;;;5194969;28;20571;-72
2023/01/31 13:55:48;;;;;;;5.63;1.10;;;;;;;;;;5194767;28;20488;-71
2023/01/31 13:58:23;;;;;;;6.30;0.93;;;;;;;;;;5194448;28;20656;-73
2023/01/31 14:01:03;;;;;;;5.65;1.10;;;;;;;;;;5196867;28;20019;-71
2023/01/31 14:04:03;;;;;;;7.60;1.42;;;;;;;;;;5195320;28;20069;-71
2023/01/31 14:06:53;;;;;;;5.95;1.27;;;;;;;;;;5208331;28;20042;-72
2023/01/31 14:09:29;;;;;;;4.93;1.10;;;;;;;;;;5196331;28;20114;-72
2023/01/31 14:12:20;;;;;;;8.48;1.13;;;;;;;;;;5195985;28;20026;-72
2023/01/31 14:14:52;;;;;;;5.05;1.48;;;;;;;;;;5196404;28;20095;-71
2023/01/31 14:17:26;;;;;;;9.23;1.25;;;;;;;;;;5196442;28;20046;-71
2023/01/31 14:20:03;;;;;;;9.80;1.30;;;;;;;;;;5196118;28;20030;-71
2023/01/31 14:22:35;;;;;;;6.18;1.00;;;;;;;;;;5196574;28;20097;-72
2023/01/31 14:25:09;;;;;;;6.63;1.50;;;;;;;;;;5196412;28;20027;-72
2023/01/31 14:27:55;;;;;;;7.47;1.00;;;;;;;;;;5195740;28;20027;-71
2023/01/31 14:30:35;;;;;;;6.20;1.17;;;;;;;;;;5196018;28;20444;-71
2023/01/31 14:33:15;;;;;;;7.95;1.48;;;;;;;;;;5195703;28;20038;-71
2023/01/31 14:35:58;;;;;;;13.18;1.35;;;;;;;;;;5196262;28;20428;-71
2023/01/31 14:38:29;;;;;;;7.82;1.25;;;;;;;;;;5195868;28;20022;-71
2023/01/31 14:41:19;;;;;;;7.47;1.33;;;;;;;;;;5195747;28;20496;-73
2023/01/31 14:44:05;;;;;;;10.38;1.10;;;;;;;;;;5195874;28;20492;-73
2023/01/31 14:46:42;;;;;;;7.95;2.35;;;;;;;;;;5195450;28;20116;-72
2023/01/31 14:49:16;;;;;;;10.23;1.55;;;;;;;;;;5196470;28;20496;-73
2023/01/31 14:52:06;;;;;;;8.68;1.10;;;;;;;;;;5196235;28;20023;-72
2023/01/31 14:54:43;;;;;;;8.65;1.42;;;;;;;;;;5194995;28;20054;-74
2023/01/31 14:57:23;;;;;;;8.40;1.33;;;;;;;;;;5195997;28;20458;-73
2023/01/31 15:00:00;;;;;;;9.60;1.30;;;;;;;;;;5196267;28;20428;-72
2023/01/31 15:02:31;;;;;;;9.40;1.30;;;;;;;;;;5195257;28;20073;-72
2023/01/31 15:05:14;;;;;;;12.00;1.52;;;;;;;;;;5195830;28;20045;-72
2023/01/31 15:08:03;;;;;;;11.38;1.63;;;;;;;;;;5194946;28;20022;-73
2023/01/31 15:10:53;;;;;;;6.88;1.05;;;;;;;;;;5195748;28;20027;-71
2023/01/31 15:13:32;;;;;;;11.75;1.25;;;;;;;;;;5195688;28;20022;-72
2023/01/31 15:16:04;;;;;;;;;;;;;;;;;;5198808;28;20148;-71
2023/01/31 15:18:35;;;;;;;8.10;1.27;;;;;;;;;;5199450;28;20004;-72
2023/01/31 15:21:07;;;;;;;9.35;0.95;;;;;;;;;;5199427;28;20029;-72
2023/01/31 15:23:40;;;;;;;5.82;1.33;;;;;;;;;;5198304;28;20026;-72